sensor_id;sensor_type;location;lat;lon;timestamp;temperature;humidity
77305;DHT22;66364;52.622;7.746;2023-03-01T00:01:31;0.00;83.10
77305;DHT22;66364;52.622;7.746;2023-03-01T00:03:35;-0.20;81.70
77305;DHT22;66364;52.622;7.746;2023-03-01T00:05:43;-0.20;81.40
77305;DHT22;66364;52.622;7.746;2023-03-01T00:07:44;-0.40;80.40
77305;DHT22;66364;52.622;7.746;2023-03-01T00:09:45;-0.50;80.70
77305;DHT22;66364;52.622;7.746;2023-03-01T00:11:46;-0.50;81.10
77305;DHT22;66364;52.622;7.746;2023-03-01T00:13:53;-0.40;82.60
77305;DHT22;66364;52.622;7.746;2023-03-01T00:15:54;-0.50;83.00
77305;DHT22;66364;52.622;7.746;2023-03-01T00:17:54;-0.50;84.40
77305;DHT22;66364;52.622;7.746;2023-03-01T00:19:55;-0.50;84.00
77305;DHT22;66364;52.622;7.746;2023-03-01T00:21:58;-0.20;84.30
77305;DHT22;66364;52.622;7.746;2023-03-01T00:23:59;-0.50;84.20
77305;DHT22;66364;52.622;7.746;2023-03-01T00:26:16;-0.50;85.10
77305;DHT22;66364;52.622;7.746;2023-03-01T00:28:18;-0.40;83.40
77305;DHT22;66364;52.622;7.746;2023-03-01T00:30:19;-0.40;83.30
77305;DHT22;66364;52.622;7.746;2023-03-01T00:32:20;-0.50;83.50
77305;DHT22;66364;52.622;7.746;2023-03-01T00:34:20;-0.70;87.90
77305;DHT22;66364;52.622;7.746;2023-03-01T00:36:21;-0.80;88.30
77305;DHT22;66364;52.622;7.746;2023-03-01T00:38:22;-0.60;86.00
77305;DHT22;66364;52.622;7.746;2023-03-01T00:40:25;-0.50;87.60
77305;DHT22;66364;52.622;7.746;2023-03-01T00:42:26;-0.80;89.90
77305;DHT22;66364;52.622;7.746;2023-03-01T00:44:27;-0.70;89.90
77305;DHT22;66364;52.622;7.746;2023-03-01T00:46:37;-1.00;91.30
77305;DHT22;66364;52.622;7.746;2023-03-01T00:48:38;-0.90;91.80
77305;DHT22;66364;52.622;7.746;2023-03-01T00:50:39;-0.70;93.60
77305;DHT22;66364;52.622;7.746;2023-03-01T00:52:40;-1.10;94.50
77305;DHT22;66364;52.622;7.746;2023-03-01T00:54:40;-0.90;96.20
77305;DHT22;66364;52.622;7.746;2023-03-01T00:56:41;-1.00;95.40
77305;DHT22;66364;52.622;7.746;2023-03-01T00:58:42;-0.70;95.00
77305;DHT22;66364;52.622;7.746;2023-03-01T01:00:42;-0.90;94.10
77305;DHT22;66364;52.622;7.746;2023-03-01T01:02:43;-0.90;93.60
77305;DHT22;66364;52.622;7.746;2023-03-01T01:04:45;-0.90;94.00
77305;DHT22;66364;52.622;7.746;2023-03-01T01:06:46;-0.80;93.80
77305;DHT22;66364;52.622;7.746;2023-03-01T01:08:48;-1.00;94.30
77305;DHT22;66364;52.622;7.746;2023-03-01T01:10:49;-1.10;94.70
77305;DHT22;66364;52.622;7.746;2023-03-01T01:12:50;-1.20;95.50
77305;DHT22;66364;52.622;7.746;2023-03-01T01:14:50;-1.20;95.50
77305;DHT22;66364;52.622;7.746;2023-03-01T01:16:51;-1.20;96.20
77305;DHT22;66364;52.622;7.746;2023-03-01T01:18:52;-1.20;95.80
77305;DHT22;66364;52.622;7.746;2023-03-01T01:20:53;-1.00;95.60
77305;DHT22;66364;52.622;7.746;2023-03-01T01:22:54;-1.00;95.50
77305;DHT22;66364;52.622;7.746;2023-03-01T01:24:55;-1.00;95.30
77305;DHT22;66364;52.622;7.746;2023-03-01T01:26:55;-1.20;95.20
77305;DHT22;66364;52.622;7.746;2023-03-01T01:28:56;-1.30;97.30
77305;DHT22;66364;52.622;7.746;2023-03-01T01:30:57;-1.10;97.00
77305;DHT22;66364;52.622;7.746;2023-03-01T01:32:58;-1.20;97.20
77305;DHT22;66364;52.622;7.746;2023-03-01T01:34:59;-1.30;98.60
77305;DHT22;66364;52.622;7.746;2023-03-01T01:36:59;-1.20;99.90
77305;DHT22;66364;52.622;7.746;2023-03-01T01:39:01;-1.30;99.90
77305;DHT22;66364;52.622;7.746;2023-03-01T01:41:02;-1.30;99.90
77305;DHT22;66364;52.622;7.746;2023-03-01T01:43:05;-1.20;99.90
77305;DHT22;66364;52.622;7.746;2023-03-01T01:47:42;-1.20;99.90
77305;DHT22;66364;52.622;7.746;2023-03-01T01:51:48;-1.20;99.90
77305;DHT22;66364;52.622;7.746;2023-03-01T01:53:54;-1.80;99.90
77305;DHT22;66364;52.622;7.746;2023-03-01T01:55:56;-1.60;99.90
77305;DHT22;66364;52.622;7.746;2023-03-01T01:58:02;-1.60;99.90
77305;DHT22;66364;52.622;7.746;2023-03-01T02:02:31;-1.70;99.90
77305;DHT22;66364;52.622;7.746;2023-03-01T02:04:53;-1.50;99.90
77305;DHT22;66364;52.622;7.746;2023-03-01T02:09:18;-1.40;99.90
77305;DHT22;66364;52.622;7.746;2023-03-01T02:11:30;-1.20;99.90
77305;DHT22;66364;52.622;7.746;2023-03-01T02:13:41;-1.60;99.90
77305;DHT22;66364;52.622;7.746;2023-03-01T02:15:51;-1.20;99.90
77305;DHT22;66364;52.622;7.746;2023-03-01T02:20:38;-1.50;99.90
77305;DHT22;66364;52.622;7.746;2023-03-01T02:22:38;-1.20;99.90
77305;DHT22;66364;52.622;7.746;2023-03-01T02:24:54;-1.40;99.90
77305;DHT22;66364;52.622;7.746;2023-03-01T02:26:55;-1.70;99.90
77305;DHT22;66364;52.622;7.746;2023-03-01T02:28:56;-1.60;99.90
77305;DHT22;66364;52.622;7.746;2023-03-01T02:30:57;-1.60;99.90
77305;DHT22;66364;52.622;7.746;2023-03-01T02:33:00;-1.70;99.90
77305;DHT22;66364;52.622;7.746;2023-03-01T02:35:01;-1.70;99.90
77305;DHT22;66364;52.622;7.746;2023-03-01T02:39:40;-1.70;99.90
77305;DHT22;66364;52.622;7.746;2023-03-01T02:41:48;-1.60;99.90
77305;DHT22;66364;52.622;7.746;2023-03-01T02:43:50;-1.50;99.90
77305;DHT22;66364;52.622;7.746;2023-03-01T02:45:53;-1.60;99.90
77305;DHT22;66364;52.622;7.746;2023-03-01T02:47:54;-1.40;99.90
77305;DHT22;66364;52.622;7.746;2023-03-01T02:49:55;-1.70;99.90
77305;DHT22;66364;52.622;7.746;2023-03-01T02:54:25;-1.60;99.90
77305;DHT22;66364;52.622;7.746;2023-03-01T02:56:29;-1.60;99.90
77305;DHT22;66364;52.622;7.746;2023-03-01T02:58:30;-1.80;99.90
77305;DHT22;66364;52.622;7.746;2023-03-01T03:00:38;-1.60;99.90
77305;DHT22;66364;52.622;7.746;2023-03-01T03:02:36;-1.60;99.90
77305;DHT22;66364;52.622;7.746;2023-03-01T03:04:36;-1.90;99.90
77305;DHT22;66364;52.622;7.746;2023-03-01T03:06:48;-1.70;99.90
77305;DHT22;66364;52.622;7.746;2023-03-01T03:08:49;-1.60;99.90
77305;DHT22;66364;52.622;7.746;2023-03-01T03:10:50;-1.50;99.90
77305;DHT22;66364;52.622;7.746;2023-03-01T03:12:53;-1.70;99.90
77305;DHT22;66364;52.622;7.746;2023-03-01T03:14:56;-1.80;99.90
77305;DHT22;66364;52.622;7.746;2023-03-01T03:17:04;-1.80;99.90
77305;DHT22;66364;52.622;7.746;2023-03-01T03:19:04;-2.00;99.90
77305;DHT22;66364;52.622;7.746;2023-03-01T03:21:08;-2.00;99.90
77305;DHT22;66364;52.622;7.746;2023-03-01T03:23:09;-2.00;99.90
77305;DHT22;66364;52.622;7.746;2023-03-01T03:25:10;-2.00;99.90
77305;DHT22;66364;52.622;7.746;2023-03-01T03:27:11;-2.00;99.90
77305;DHT22;66364;52.622;7.746;2023-03-01T03:29:11;-2.00;99.90
77305;DHT22;66364;52.622;7.746;2023-03-01T03:31:19;-1.90;99.90
77305;DHT22;66364;52.622;7.746;2023-03-01T03:33:20;-1.80;99.90
77305;DHT22;66364;52.622;7.746;2023-03-01T03:35:24;-2.00;99.90
77305;DHT22;66364;52.622;7.746;2023-03-01T03:37:25;-2.00;99.90
77305;DHT22;66364;52.622;7.746;2023-03-01T03:39:37;-2.20;99.90
77305;DHT22;66364;52.622;7.746;2023-03-01T03:41:42;-2.10;99.90
77305;DHT22;66364;52.622;7.746;2023-03-01T03:43:43;-2.20;99.90
77305;DHT22;66364;52.622;7.746;2023-03-01T03:45:46;-2.20;99.90
77305;DHT22;66364;52.622;7.746;2023-03-01T03:47:54;-2.10;99.90
77305;DHT22;66364;52.622;7.746;2023-03-01T03:49:55;-2.20;99.90
77305;DHT22;66364;52.622;7.746;2023-03-01T03:51:56;-2.20;99.90
77305;DHT22;66364;52.622;7.746;2023-03-01T03:53:56;-2.20;99.90
77305;DHT22;66364;52.622;7.746;2023-03-01T03:55:57;-2.30;99.90
77305;DHT22;66364;52.622;7.746;2023-03-01T03:58:19;-1.90;99.90
77305;DHT22;66364;52.622;7.746;2023-03-01T04:00:21;-2.20;99.90
77305;DHT22;66364;52.622;7.746;2023-03-01T04:02:22;-2.20;99.90
77305;DHT22;66364;52.622;7.746;2023-03-01T04:04:23;-2.30;99.90
77305;DHT22;66364;52.622;7.746;2023-03-01T04:06:23;-2.40;99.90
77305;DHT22;66364;52.622;7.746;2023-03-01T04:08:24;-2.20;99.90
77305;DHT22;66364;52.622;7.746;2023-03-01T04:10:25;-2.20;99.90
77305;DHT22;66364;52.622;7.746;2023-03-01T04:12:41;-2.10;99.90
77305;DHT22;66364;52.622;7.746;2023-03-01T04:14:42;-2.30;99.90
77305;DHT22;66364;52.622;7.746;2023-03-01T04:16:48;-2.10;99.90
77305;DHT22;66364;52.622;7.746;2023-03-01T04:18:49;-2.10;99.90
77305;DHT22;66364;52.622;7.746;2023-03-01T04:20:50;-2.30;99.90
77305;DHT22;66364;52.622;7.746;2023-03-01T04:25:26;-2.30;99.90
77305;DHT22;66364;52.622;7.746;2023-03-01T04:27:26;-2.00;99.90
77305;DHT22;66364;52.622;7.746;2023-03-01T04:29:27;-2.20;99.90
77305;DHT22;66364;52.622;7.746;2023-03-01T04:31:28;-2.20;99.90
77305;DHT22;66364;52.622;7.746;2023-03-01T04:33:29;-2.30;99.90
77305;DHT22;66364;52.622;7.746;2023-03-01T04:35:30;-2.40;99.90
77305;DHT22;66364;52.622;7.746;2023-03-01T04:37:31;-2.20;99.90
77305;DHT22;66364;52.622;7.746;2023-03-01T04:39:31;-2.30;99.90
77305;DHT22;66364;52.622;7.746;2023-03-01T04:41:32;-2.50;99.90
77305;DHT22;66364;52.622;7.746;2023-03-01T04:43:33;-2.40;99.90
77305;DHT22;66364;52.622;7.746;2023-03-01T04:45:36;-2.60;99.90
77305;DHT22;66364;52.622;7.746;2023-03-01T04:47:37;-2.60;99.90
77305;DHT22;66364;52.622;7.746;2023-03-01T04:49:44;-2.60;99.90
77305;DHT22;66364;52.622;7.746;2023-03-01T04:51:44;-2.40;99.90
77305;DHT22;66364;52.622;7.746;2023-03-01T04:53:45;-2.50;99.90
77305;DHT22;66364;52.622;7.746;2023-03-01T04:55:46;-2.70;99.90
77305;DHT22;66364;52.622;7.746;2023-03-01T04:57:47;-2.50;99.90
77305;DHT22;66364;52.622;7.746;2023-03-01T05:00:00;-2.70;99.90
77305;DHT22;66364;52.622;7.746;2023-03-01T05:02:00;-2.50;99.90
77305;DHT22;66364;52.622;7.746;2023-03-01T05:04:10;-2.50;99.90
77305;DHT22;66364;52.622;7.746;2023-03-01T05:06:11;-2.40;99.90
77305;DHT22;66364;52.622;7.746;2023-03-01T05:08:13;-2.50;99.90
77305;DHT22;66364;52.622;7.746;2023-03-01T05:10:17;-2.50;99.90
77305;DHT22;66364;52.622;7.746;2023-03-01T05:12:24;-2.50;99.90
77305;DHT22;66364;52.622;7.746;2023-03-01T05:14:30;-2.60;99.90
77305;DHT22;66364;52.622;7.746;2023-03-01T05:16:37;-2.70;99.90
77305;DHT22;66364;52.622;7.746;2023-03-01T05:18:40;-2.50;99.90
77305;DHT22;66364;52.622;7.746;2023-03-01T05:20:41;-2.70;99.90
77305;DHT22;66364;52.622;7.746;2023-03-01T05:22:41;-2.60;99.90
77305;DHT22;66364;52.622;7.746;2023-03-01T05:24:42;-2.70;99.90
77305;DHT22;66364;52.622;7.746;2023-03-01T05:26:42;-2.60;99.90
77305;DHT22;66364;52.622;7.746;2023-03-01T05:28:44;-2.40;99.90
77305;DHT22;66364;52.622;7.746;2023-03-01T05:30:45;-2.40;99.90
77305;DHT22;66364;52.622;7.746;2023-03-01T05:32:48;-2.40;99.90
77305;DHT22;66364;52.622;7.746;2023-03-01T05:34:49;-2.30;99.90
77305;DHT22;66364;52.622;7.746;2023-03-01T05:36:51;-2.70;99.90
77305;DHT22;66364;52.622;7.746;2023-03-01T05:38:52;-2.70;99.90
77305;DHT22;66364;52.622;7.746;2023-03-01T05:40:59;-2.50;99.90
77305;DHT22;66364;52.622;7.746;2023-03-01T05:43:00;-2.70;99.90
77305;DHT22;66364;52.622;7.746;2023-03-01T05:45:01;-2.60;99.90
77305;DHT22;66364;52.622;7.746;2023-03-01T05:47:17;-2.70;99.90
77305;DHT22;66364;52.622;7.746;2023-03-01T05:49:37;-2.70;99.90
77305;DHT22;66364;52.622;7.746;2023-03-01T05:51:38;-3.40;99.90
77305;DHT22;66364;52.622;7.746;2023-03-01T05:53:38;-3.00;99.90
77305;DHT22;66364;52.622;7.746;2023-03-01T05:55:39;-2.90;99.90
77305;DHT22;66364;52.622;7.746;2023-03-01T05:57:40;-2.90;99.90
77305;DHT22;66364;52.622;7.746;2023-03-01T06:00:01;-3.00;99.90
77305;DHT22;66364;52.622;7.746;2023-03-01T06:02:02;-3.30;99.90
77305;DHT22;66364;52.622;7.746;2023-03-01T06:04:03;-2.90;99.90
77305;DHT22;66364;52.622;7.746;2023-03-01T06:06:04;-3.10;99.90
77305;DHT22;66364;52.622;7.746;2023-03-01T06:08:06;-3.10;99.90
77305;DHT22;66364;52.622;7.746;2023-03-01T06:10:08;-3.10;99.90
77305;DHT22;66364;52.622;7.746;2023-03-01T06:12:09;-3.10;99.90
77305;DHT22;66364;52.622;7.746;2023-03-01T06:14:09;-3.00;99.90
77305;DHT22;66364;52.622;7.746;2023-03-01T06:16:10;-2.80;99.90
77305;DHT22;66364;52.622;7.746;2023-03-01T06:18:13;-3.00;99.90
77305;DHT22;66364;52.622;7.746;2023-03-01T06:20:20;-2.90;99.90
77305;DHT22;66364;52.622;7.746;2023-03-01T06:22:41;-2.80;99.90
77305;DHT22;66364;52.622;7.746;2023-03-01T06:24:42;-2.80;99.90
77305;DHT22;66364;52.622;7.746;2023-03-01T06:26:43;-2.90;99.90
77305;DHT22;66364;52.622;7.746;2023-03-01T06:28:52;-3.20;99.90
77305;DHT22;66364;52.622;7.746;2023-03-01T06:30:53;-2.90;99.90
77305;DHT22;66364;52.622;7.746;2023-03-01T06:32:57;-3.20;99.90
77305;DHT22;66364;52.622;7.746;2023-03-01T06:34:58;-2.80;99.90
77305;DHT22;66364;52.622;7.746;2023-03-01T06:36:58;-3.00;99.90
77305;DHT22;66364;52.622;7.746;2023-03-01T06:38:59;-2.70;99.90
77305;DHT22;66364;52.622;7.746;2023-03-01T06:41:00;-2.60;99.90
77305;DHT22;66364;52.622;7.746;2023-03-01T06:43:01;-2.80;99.90
77305;DHT22;66364;52.622;7.746;2023-03-01T06:45:02;-3.00;99.90
77305;DHT22;66364;52.622;7.746;2023-03-01T06:47:06;-2.80;99.90
77305;DHT22;66364;52.622;7.746;2023-03-01T06:49:07;-2.80;99.90
77305;DHT22;66364;52.622;7.746;2023-03-01T06:51:07;-2.70;99.90
77305;DHT22;66364;52.622;7.746;2023-03-01T06:53:11;-2.60;99.90
77305;DHT22;66364;52.622;7.746;2023-03-01T06:55:12;-2.40;99.90
77305;DHT22;66364;52.622;7.746;2023-03-01T06:57:13;-2.40;99.90
77305;DHT22;66364;52.622;7.746;2023-03-01T06:59:14;-2.30;99.90
77305;DHT22;66364;52.622;7.746;2023-03-01T07:01:15;-2.50;99.90
77305;DHT22;66364;52.622;7.746;2023-03-01T07:03:16;-2.50;99.90
77305;DHT22;66364;52.622;7.746;2023-03-01T07:05:17;-2.40;99.90
77305;DHT22;66364;52.622;7.746;2023-03-01T07:07:18;-2.20;99.90
77305;DHT22;66364;52.622;7.746;2023-03-01T07:09:18;-2.20;99.90
77305;DHT22;66364;52.622;7.746;2023-03-01T07:11:19;-2.20;99.90
77305;DHT22;66364;52.622;7.746;2023-03-01T07:13:20;-2.40;99.90
77305;DHT22;66364;52.622;7.746;2023-03-01T07:15:20;-2.30;99.90
77305;DHT22;66364;52.622;7.746;2023-03-01T07:17:21;-2.00;99.90
77305;DHT22;66364;52.622;7.746;2023-03-01T07:19:22;-1.90;99.90
77305;DHT22;66364;52.622;7.746;2023-03-01T07:21:25;-1.90;99.90
77305;DHT22;66364;52.622;7.746;2023-03-01T07:23:26;-1.80;99.90
77305;DHT22;66364;52.622;7.746;2023-03-01T07:25:26;-1.70;99.90
77305;DHT22;66364;52.622;7.746;2023-03-01T07:27:37;-1.70;99.90
77305;DHT22;66364;52.622;7.746;2023-03-01T07:29:37;-1.50;99.90
77305;DHT22;66364;52.622;7.746;2023-03-01T07:31:38;-1.40;99.90
77305;DHT22;66364;52.622;7.746;2023-03-01T07:33:39;-1.20;99.90
77305;DHT22;66364;52.622;7.746;2023-03-01T07:35:39;-1.10;99.90
77305;DHT22;66364;52.622;7.746;2023-03-01T07:37:40;-1.20;99.90
77305;DHT22;66364;52.622;7.746;2023-03-01T07:39:41;-0.80;99.90
77305;DHT22;66364;52.622;7.746;2023-03-01T07:41:41;-0.90;99.90
77305;DHT22;66364;52.622;7.746;2023-03-01T07:43:42;-0.80;99.90
77305;DHT22;66364;52.622;7.746;2023-03-01T07:45:43;-0.40;99.90
77305;DHT22;66364;52.622;7.746;2023-03-01T07:47:44;-0.50;99.90
77305;DHT22;66364;52.622;7.746;2023-03-01T07:49:50;-0.50;99.90
77305;DHT22;66364;52.622;7.746;2023-03-01T07:51:51;-0.30;99.90
77305;DHT22;66364;52.622;7.746;2023-03-01T07:53:52;0.00;99.90
77305;DHT22;66364;52.622;7.746;2023-03-01T07:56:10;-0.10;99.90
77305;DHT22;66364;52.622;7.746;2023-03-01T07:58:11;0.00;99.90
77305;DHT22;66364;52.622;7.746;2023-03-01T08:00:15;0.40;99.90
77305;DHT22;66364;52.622;7.746;2023-03-01T08:02:41;0.50;99.90
77305;DHT22;66364;52.622;7.746;2023-03-01T08:04:42;0.60;99.90
77305;DHT22;66364;52.622;7.746;2023-03-01T08:06:42;0.70;99.90
77305;DHT22;66364;52.622;7.746;2023-03-01T08:08:43;0.50;99.90
77305;DHT22;66364;52.622;7.746;2023-03-01T08:10:44;1.00;99.90
77305;DHT22;66364;52.622;7.746;2023-03-01T08:12:45;1.10;99.90
77305;DHT22;66364;52.622;7.746;2023-03-01T08:14:46;1.30;99.90
77305;DHT22;66364;52.622;7.746;2023-03-01T08:16:49;1.40;99.90
77305;DHT22;66364;52.622;7.746;2023-03-01T08:18:50;1.50;99.90
77305;DHT22;66364;52.622;7.746;2023-03-01T08:20:50;1.50;99.90
77305;DHT22;66364;52.622;7.746;2023-03-01T08:22:51;1.90;99.90
77305;DHT22;66364;52.622;7.746;2023-03-01T08:24:52;2.10;99.90
77305;DHT22;66364;52.622;7.746;2023-03-01T08:26:52;1.60;99.90
77305;DHT22;66364;52.622;7.746;2023-03-01T08:28:53;2.10;99.90
77305;DHT22;66364;52.622;7.746;2023-03-01T08:30:54;2.50;99.90
77305;DHT22;66364;52.622;7.746;2023-03-01T08:32:55;2.60;99.90
77305;DHT22;66364;52.622;7.746;2023-03-01T08:34:55;2.70;99.90
77305;DHT22;66364;52.622;7.746;2023-03-01T08:36:56;2.90;99.90
77305;DHT22;66364;52.622;7.746;2023-03-01T08:38:57;2.90;99.90
77305;DHT22;66364;52.622;7.746;2023-03-01T08:41:01;3.00;99.90
77305;DHT22;66364;52.622;7.746;2023-03-01T08:43:02;3.30;99.90
77305;DHT22;66364;52.622;7.746;2023-03-01T08:45:04;3.90;97.00
77305;DHT22;66364;52.622;7.746;2023-03-01T08:47:10;3.90;93.70
77305;DHT22;66364;52.622;7.746;2023-03-01T08:49:14;4.20;89.60
77305;DHT22;66364;52.622;7.746;2023-03-01T08:51:18;4.90;84.50
77305;DHT22;66364;52.622;7.746;2023-03-01T08:53:19;4.70;76.00
77305;DHT22;66364;52.622;7.746;2023-03-01T08:55:20;5.00;73.30
77305;DHT22;66364;52.622;7.746;2023-03-01T08:57:21;5.40;71.30
77305;DHT22;66364;52.622;7.746;2023-03-01T08:59:21;5.50;72.90
77305;DHT22;66364;52.622;7.746;2023-03-01T09:01:22;5.80;70.70
77305;DHT22;66364;52.622;7.746;2023-03-01T09:03:24;5.80;68.50
77305;DHT22;66364;52.622;7.746;2023-03-01T09:05:25;5.90;64.80
77305;DHT22;66364;52.622;7.746;2023-03-01T09:07:26;5.70;62.50
77305;DHT22;66364;52.622;7.746;2023-03-01T09:09:27;6.50;61.50
77305;DHT22;66364;52.622;7.746;2023-03-01T09:11:28;6.70;58.30
77305;DHT22;66364;52.622;7.746;2023-03-01T09:13:29;7.00;56.10
77305;DHT22;66364;52.622;7.746;2023-03-01T09:15:32;7.40;51.60
77305;DHT22;66364;52.622;7.746;2023-03-01T09:17:33;7.60;50.10
77305;DHT22;66364;52.622;7.746;2023-03-01T09:19:34;7.40;50.70
77305;DHT22;66364;52.622;7.746;2023-03-01T09:21:35;7.60;52.00
77305;DHT22;66364;52.622;7.746;2023-03-01T09:23:37;7.60;52.30
77305;DHT22;66364;52.622;7.746;2023-03-01T09:25:38;7.60;53.30
77305;DHT22;66364;52.622;7.746;2023-03-01T09:27:39;7.60;48.30
77305;DHT22;66364;52.622;7.746;2023-03-01T09:29:40;8.00;46.00
77305;DHT22;66364;52.622;7.746;2023-03-01T09:31:41;8.10;44.90
77305;DHT22;66364;52.622;7.746;2023-03-01T09:33:42;8.30;42.20
77305;DHT22;66364;52.622;7.746;2023-03-01T09:35:43;8.20;43.60
77305;DHT22;66364;52.622;7.746;2023-03-01T09:37:43;8.20;46.30
77305;DHT22;66364;52.622;7.746;2023-03-01T09:39:44;8.40;46.60
77305;DHT22;66364;52.622;7.746;2023-03-01T09:41:49;8.50;44.40
77305;DHT22;66364;52.622;7.746;2023-03-01T09:44:03;8.60;44.10
77305;DHT22;66364;52.622;7.746;2023-03-01T09:46:05;9.00;40.80
77305;DHT22;66364;52.622;7.746;2023-03-01T09:48:13;9.10;38.40
77305;DHT22;66364;52.622;7.746;2023-03-01T09:50:19;9.30;37.40
77305;DHT22;66364;52.622;7.746;2023-03-01T09:52:40;9.00;40.50
77305;DHT22;66364;52.622;7.746;2023-03-01T09:54:42;9.70;39.70
77305;DHT22;66364;52.622;7.746;2023-03-01T09:59:26;9.80;35.30
77305;DHT22;66364;52.622;7.746;2023-03-01T10:04:02;10.40;30.00
77305;DHT22;66364;52.622;7.746;2023-03-01T10:07:58;10.30;30.60
77305;DHT22;66364;52.622;7.746;2023-03-01T10:09:55;10.70;30.30
77305;DHT22;66364;52.622;7.746;2023-03-01T10:11:56;10.60;29.00
77305;DHT22;66364;52.622;7.746;2023-03-01T10:14:01;11.00;27.60
77305;DHT22;66364;52.622;7.746;2023-03-01T10:16:05;10.80;25.70
77305;DHT22;66364;52.622;7.746;2023-03-01T10:18:27;11.20;25.70
77305;DHT22;66364;52.622;7.746;2023-03-01T10:20:40;11.40;26.50
77305;DHT22;66364;52.622;7.746;2023-03-01T10:22:36;10.80;26.40
77305;DHT22;66364;52.622;7.746;2023-03-01T10:24:37;10.80;24.20
77305;DHT22;66364;52.622;7.746;2023-03-01T10:26:56;11.10;24.40
77305;DHT22;66364;52.622;7.746;2023-03-01T10:29:05;11.10;23.80
77305;DHT22;66364;52.622;7.746;2023-03-01T10:31:12;11.60;22.60
77305;DHT22;66364;52.622;7.746;2023-03-01T10:33:23;12.00;21.20
77305;DHT22;66364;52.622;7.746;2023-03-01T10:35:27;11.80;21.60
77305;DHT22;66364;52.622;7.746;2023-03-01T10:37:28;11.50;20.40
77305;DHT22;66364;52.622;7.746;2023-03-01T10:39:29;11.80;22.10
77305;DHT22;66364;52.622;7.746;2023-03-01T10:41:30;11.40;20.50
77305;DHT22;66364;52.622;7.746;2023-03-01T10:45:47;11.20;23.20
77305;DHT22;66364;52.622;7.746;2023-03-01T10:48:03;11.40;23.40
77305;DHT22;66364;52.622;7.746;2023-03-01T10:50:17;11.70;20.80
77305;DHT22;66364;52.622;7.746;2023-03-01T10:52:18;11.80;20.50
77305;DHT22;66364;52.622;7.746;2023-03-01T10:54:23;11.80;20.50
77305;DHT22;66364;52.622;7.746;2023-03-01T10:56:45;11.70;21.70
77305;DHT22;66364;52.622;7.746;2023-03-01T10:58:40;11.80;21.10
77305;DHT22;66364;52.622;7.746;2023-03-01T11:01:03;12.00;20.90
77305;DHT22;66364;52.622;7.746;2023-03-01T11:03:03;11.90;21.30
77305;DHT22;66364;52.622;7.746;2023-03-01T11:05:19;11.70;19.00
77305;DHT22;66364;52.622;7.746;2023-03-01T11:07:20;10.60;20.80
77305;DHT22;66364;52.622;7.746;2023-03-01T11:09:23;10.70;21.70
77305;DHT22;66364;52.622;7.746;2023-03-01T11:11:30;11.00;20.20
77305;DHT22;66364;52.622;7.746;2023-03-01T11:13:31;11.50;20.90
77305;DHT22;66364;52.622;7.746;2023-03-01T11:15:32;11.60;21.60
77305;DHT22;66364;52.622;7.746;2023-03-01T11:17:33;11.40;20.20
77305;DHT22;66364;52.622;7.746;2023-03-01T11:19:40;11.60;21.60
77305;DHT22;66364;52.622;7.746;2023-03-01T11:23:46;10.50;23.40
77305;DHT22;66364;52.622;7.746;2023-03-01T11:26:05;10.40;21.80
77305;DHT22;66364;52.622;7.746;2023-03-01T11:28:12;10.80;22.60
77305;DHT22;66364;52.622;7.746;2023-03-01T11:30:34;10.80;21.30
77305;DHT22;66364;52.622;7.746;2023-03-01T11:32:36;10.80;23.30
77305;DHT22;66364;52.622;7.746;2023-03-01T11:34:47;10.80;22.00
77305;DHT22;66364;52.622;7.746;2023-03-01T11:36:53;11.40;21.50
77305;DHT22;66364;52.622;7.746;2023-03-01T11:39:16;10.70;20.80
77305;DHT22;66364;52.622;7.746;2023-03-01T11:41:26;11.10;22.50
77305;DHT22;66364;52.622;7.746;2023-03-01T11:50:47;12.20;21.20
77305;DHT22;66364;52.622;7.746;2023-03-01T12:00:07;13.00;18.00
77305;DHT22;66364;52.622;7.746;2023-03-01T12:11:43;13.90;15.60
77305;DHT22;66364;52.622;7.746;2023-03-01T12:19:00;14.20;15.90
77305;DHT22;66364;52.622;7.746;2023-03-01T12:31:37;15.50;12.90
77305;DHT22;66364;52.622;7.746;2023-03-01T12:33:58;14.90;12.50
77305;DHT22;66364;52.622;7.746;2023-03-01T12:43:36;15.80;11.90
77305;DHT22;66364;52.622;7.746;2023-03-01T12:46:10;16.20;10.80
77305;DHT22;66364;52.622;7.746;2023-03-01T12:50:42;15.80;11.40
77305;DHT22;66364;52.622;7.746;2023-03-01T12:54:53;15.90;12.10
77305;DHT22;66364;52.622;7.746;2023-03-01T12:56:55;15.60;12.50
77305;DHT22;66364;52.622;7.746;2023-03-01T12:59:04;15.60;12.50
77305;DHT22;66364;52.622;7.746;2023-03-01T13:10:51;13.30;13.80
77305;DHT22;66364;52.622;7.746;2023-03-01T13:15:41;13.20;14.20
77305;DHT22;66364;52.622;7.746;2023-03-01T13:17:31;13.10;15.50
77305;DHT22;66364;52.622;7.746;2023-03-01T13:19:32;13.60;16.50
77305;DHT22;66364;52.622;7.746;2023-03-01T13:21:32;13.90;15.60
77305;DHT22;66364;52.622;7.746;2023-03-01T13:23:38;13.30;14.70
77305;DHT22;66364;52.622;7.746;2023-03-01T13:32:38;13.10;16.10
77305;DHT22;66364;52.622;7.746;2023-03-01T13:34:44;13.40;17.50
77305;DHT22;66364;52.622;7.746;2023-03-01T13:36:46;13.20;16.10
77305;DHT22;66364;52.622;7.746;2023-03-01T13:41:00;12.70;15.20
77305;DHT22;66364;52.622;7.746;2023-03-01T13:47:38;12.50;18.50
77305;DHT22;66364;52.622;7.746;2023-03-01T13:49:57;13.30;16.50
77305;DHT22;66364;52.622;7.746;2023-03-01T13:51:57;13.30;16.50
77305;DHT22;66364;52.622;7.746;2023-03-01T13:53:58;13.70;16.70
77305;DHT22;66364;52.622;7.746;2023-03-01T13:56:17;13.70;18.00
77305;DHT22;66364;52.622;7.746;2023-03-01T13:58:25;13.40;17.60
77305;DHT22;66364;52.622;7.746;2023-03-01T14:00:38;13.10;17.80
77305;DHT22;66364;52.622;7.746;2023-03-01T14:02:39;12.90;18.50
77305;DHT22;66364;52.622;7.746;2023-03-01T14:04:39;13.30;18.30
77305;DHT22;66364;52.622;7.746;2023-03-01T14:06:40;13.40;18.40
77305;DHT22;66364;52.622;7.746;2023-03-01T14:08:42;14.10;17.90
77305;DHT22;66364;52.622;7.746;2023-03-01T14:15:34;15.60;15.30
77305;DHT22;66364;52.622;7.746;2023-03-01T14:19:41;14.90;17.40
77305;DHT22;66364;52.622;7.746;2023-03-01T14:21:44;15.70;16.20
77305;DHT22;66364;52.622;7.746;2023-03-01T14:23:45;16.10;15.80
77305;DHT22;66364;52.622;7.746;2023-03-01T14:25:48;16.60;14.30
77305;DHT22;66364;52.622;7.746;2023-03-01T14:30:03;16.30;12.70
77305;DHT22;66364;52.622;7.746;2023-03-01T14:32:22;15.90;13.00
77305;DHT22;66364;52.622;7.746;2023-03-01T14:34:24;15.50;13.10
77305;DHT22;66364;52.622;7.746;2023-03-01T14:36:27;15.60;13.30
77305;DHT22;66364;52.622;7.746;2023-03-01T14:38:37;15.70;14.30
77305;DHT22;66364;52.622;7.746;2023-03-01T14:40:38;16.00;14.60
77305;DHT22;66364;52.622;7.746;2023-03-01T14:42:38;15.80;15.60
77305;DHT22;66364;52.622;7.746;2023-03-01T14:44:42;15.80;15.60
77305;DHT22;66364;52.622;7.746;2023-03-01T14:46:44;15.50;15.20
77305;DHT22;66364;52.622;7.746;2023-03-01T14:48:45;16.10;13.80
77305;DHT22;66364;52.622;7.746;2023-03-01T14:50:45;15.50;13.80
77305;DHT22;66364;52.622;7.746;2023-03-01T14:52:48;15.60;12.80
77305;DHT22;66364;52.622;7.746;2023-03-01T14:54:52;15.50;13.70
77305;DHT22;66364;52.622;7.746;2023-03-01T14:56:57;15.90;13.20
77305;DHT22;66364;52.622;7.746;2023-03-01T14:58:58;16.10;13.30
77305;DHT22;66364;52.622;7.746;2023-03-01T15:01:04;16.10;12.30